Air Resources Laboratory banner image
Air Resources Laboratory web site National Oceanic and Atmospheric Administration (NOAA)

va metar


KAKQ 262054Z AUTO VRB05KT 10SM SCT040 SCT055 29/21 A2988 RMK AO2 SLP116
 T02890206 56010=
KAVC 262055Z AUTO 00000KT 10SM CLR 26/23 A2995 RMK AO2 LTG DSNT W T02570231=
KBCB 262055Z AUTO 00000KT 10SM -TSRA SCT009 SCT031 BKN110 21/20 A2997 RMK AO2
 LTG DSNT SE AND NW 60006 T02100197=
KCHO 262053Z 21007KT 10SM -TSRA FEW035 SCT055 SCT080 28/22 A2985 RMK AO2 LTG
 DSNT NE AND SW RAB53 TSB36 SLP102 P0000 60000 T02780217 55006=
KCJR 262055Z AUTO 36004KT 10SM TS SCT039 SCT060 OVC120 26/22 A2985 RMK AO2 LTG
 DSNT ALQS T02640217=
KCPK 262055Z AUTO 23008G14KT 7SM CLR 30/19 A2988 RMK AO2 T02990194=
KDAA 262056Z AUTO 17003KT 10SM FEW120 FEW210 29/22 A2982 RMK AO2 LTG DSNT NE
 SLP101 T02890219 56008 $=
KDAN 262053Z AUTO 00000KT 10SM FEW020 SCT025 SCT029 26/23 A2990 RMK AO2 LTG
 DSNT W SLP113 60014 T02610228 56016 $=
KDCA 262052Z 18004KT 10SM FEW070 OVC180 29/21 A2983 RMK AO2 SLP101 T02890211
 55005=
KEZF 262055Z AUTO 19010KT 10SM SCT040 SCT050 BKN100 31/22 A2983 RMK AO2
 T03060222=
KFAF 262056Z AUTO 21007KT 10SM FEW042 30/21 A2985 RMK AO2 SLP111 T03040212
 56011 $=
KFKN 262055Z AUTO 23008KT 10SM SCT055 SCT065 30/21 A2989 RMK AO2 T02970205=
KHEF 262056Z 26003KT 10SM FEW037 BKN048 BKN060 27/24 A2984 RMK AO2 LTG DSNT SW
 SLP113 6//// T02720239 55004 PNO $=
KHLX 262055Z AUTO 00000KT 10SM VCTS SCT007 BKN034 BKN045 19/18 A2997 RMK AO2
 LTG DSNT E THRU SW 60013 T01910183=
KHSP 262055Z AUTO 28004KT 1SM -RA OVC002 19/19 A3002 RMK AO2 VIS 1/2V5 LTG DSNT
 S AND SW T01900188=
KIAD 262052Z 00000KT 10SM FEW035 BKN065CB BKN100 27/23 A2984 RMK AO2 LTG DSNT
 SE AND W RAB02E33 SLP101 CB ALQDS MOV NE VCSH NE P0000 60000 T02720233 55002=
KJYO 262055Z AUTO 23004KT 10SM SCT100 28/22 A2985 RMK AO2 LTG DSNT E AND SW=
KLFI 262056Z AUTO 22011KT 9SM BKN048 31/21 A2987 RMK AO2 SLP122 T03060211 55010=
KLKU 262055Z AUTO 20006KT 10SM VCTS SCT039 BKN046 BKN050 27/21 A2990 RMK AO2
 LTG DSNT N NE AND SW T02740207=
KLNP 262055Z AUTO 24004KT 10SM OVC014 23/20 A2998 RMK AO2 LTG DSNT N THRU S=
KLYH 262054Z 24003KT 4SM -RA BR SCT014 BKN080 OVC110 22/21 A2991 RMK AO2 LTG
 DSNT N AND NE RAB1958 SLP119 P0004 60004 T02220211 50000=
KMFV 262055Z AUTO 21008G16KT 190V250 10SM SCT040 31/21 A2986 RMK AO2 T03070208=
KMKJ 262055Z AUTO 00000KT 10SM SCT018 23/19 A2999 RMK AO2 LTG DSNT SE AND W
 60004 T02310190=
KMTV 262055Z AUTO 00000KT 10SM -TSRA SCT026 SCT036 BKN055 21/20 A2993 RMK AO2
 LTG DSNT NE THRU S T02080200=
KNGU 262059Z 23010KT 10SM BKN050 BKN280 30/19 A2989 RMK AO2 SLP120 T03000194
 56010=
KNTU 262056Z 22011KT 10SM SCT045 SCT300 30/20 A2987 RMK AO2 SLP116 T03000200
 56010=
KNYG 262056Z AUTO 23003KT 10SM CLR 30/22 A2983 RMK AO2 SLP101 T03000222 55008=
KOFP 262054Z AUTO 23011KT 10SM FEW044 29/20 A2987 RMK AO2 SLP112 T02940200
 55006=
KOKV 262055Z AUTO 23005KT 5SM RA SCT060 OVC090 21/20 A2988 RMK AO2 LTG DSNT NE
 THRU S P0015=
KOMH 262055Z AUTO 19003KT 10SM TS SCT032 SCT039 SCT075 27/22 A2984 RMK AO2 LTG
 DSNT ALQS=
KORF 262051Z 22012KT 10SM BKN050 BKN055 30/21 A2987 RMK AO2 LTG DSNT W SLP113
 T03000206 56011=
KPHF 262054Z 23014KT 10SM FEW050 31/21 A2987 RMK AO2 SLP114 T03060206 56010=
KPSK 262055Z AUTO 19003KT 10SM -VCTSRA SCT045 SCT060 OVC100 22/20 A2996 RMK AO2
 LTG DSNT SE T02150196=
KPTB 262055Z AUTO 22004KT 10SM CLR 27/20 A2989 RMK AO2 LTG DSNT N AND W
 T02670200=
KRIC 262054Z 21012G20KT 10SM SCT040 SCT170 BKN300 29/21 A2987 RMK AO2 SLP116
 T02890206 56007=
KROA 262054Z 25004KT 10SM FEW006 SCT033 BKN120 23/20 A2992 RMK AO2 LTG DSNT W
 SLP119 60011 T02330200 58016=
KSFQ 262055Z AUTO 22008KT 10SM CLR 30/20 A2989 RMK AO2 LTG DSNT W T03020204=
KSHD 262055Z AUTO 20006KT 10SM BKN044 26/20 A2991 RMK AO2 LTG DSNT ALQS
 T02560198=
KVJI 262055Z AUTO 00000KT 10SM CLR 25/20 A2994 RMK AO2 LTG DSNT NW T02530195=
KWAL 262054Z AUTO 19011KT 10SM SCT042 BKN050 27/22 A2987 RMK AO2 SLP111
 T02670222 56005=